createdAt,value
2023-04-17T00:03:06.512Z,0.00
2023-04-17T00:08:06.387Z,0.00
2023-04-17T00:13:06.277Z,0.00
2023-04-17T00:18:06.171Z,0.00
2023-04-17T00:23:06.143Z,0.00
2023-04-17T00:28:09.135Z,0.00
2023-04-17T00:33:05.947Z,0.00
2023-04-17T00:38:05.910Z,0.00
2023-04-17T00:43:05.814Z,0.00
2023-04-17T00:48:05.819Z,0.00
2023-04-17T00:53:05.745Z,0.00
2023-04-17T00:58:05.660Z,0.00
2023-04-17T01:03:05.783Z,0.00
2023-04-17T01:08:05.534Z,0.00
2023-04-17T01:13:05.387Z,0.00
2023-04-17T01:18:05.443Z,0.00
2023-04-17T01:23:05.268Z,0.00
2023-04-17T01:28:08.241Z,0.00
2023-04-17T01:33:05.334Z,0.00
2023-04-17T01:38:05.749Z,0.00
2023-04-17T01:43:05.135Z,0.00
2023-04-17T01:48:05.037Z,0.00
2023-04-17T01:53:04.968Z,0.00
2023-04-17T01:58:05.103Z,0.00
2023-04-17T02:03:04.891Z,0.00
2023-04-17T02:08:04.784Z,0.00
2023-04-17T02:13:05.569Z,0.00
2023-04-17T02:18:04.803Z,0.00
2023-04-17T02:23:04.721Z,0.00
2023-04-17T02:28:07.480Z,0.00
2023-04-17T02:33:04.396Z,0.00
2023-04-17T02:38:04.364Z,0.00
2023-04-17T02:43:04.370Z,0.00
2023-04-17T02:48:05.412Z,0.00
2023-04-17T02:53:04.115Z,0.00
2023-04-17T02:58:04.152Z,0.00
2023-04-17T03:03:04.082Z,0.00
2023-04-17T03:08:03.978Z,0.00
2023-04-17T03:13:03.994Z,0.00
2023-04-17T03:18:03.956Z,0.00
2023-04-17T03:23:18.690Z,0.00
2023-04-17T03:28:06.735Z,0.00
2023-04-17T03:33:03.778Z,0.00
2023-04-17T03:38:03.610Z,0.00
2023-04-17T03:43:03.543Z,0.00
2023-04-17T03:48:03.647Z,0.00
2023-04-17T03:53:03.334Z,0.00
2023-04-17T03:58:03.355Z,0.00
2023-04-17T04:03:03.303Z,0.00
2023-04-17T04:08:03.157Z,0.00
2023-04-17T04:13:03.069Z,0.00
2023-04-17T04:18:03.229Z,0.00
2023-04-17T04:23:02.988Z,5.62
2023-04-17T04:28:05.955Z,0.00
2023-04-17T04:33:02.850Z,5.62
2023-04-17T04:38:02.810Z,16.88
2023-04-17T04:43:02.671Z,28.12
2023-04-17T04:48:02.743Z,22.50
2023-04-17T04:53:02.547Z,28.12
2023-04-17T04:58:02.557Z,45.00
2023-04-17T05:03:02.707Z,56.25
2023-04-17T05:08:02.872Z,39.38
2023-04-17T05:13:02.290Z,39.38
2023-04-17T05:18:02.361Z,61.88
2023-04-17T05:23:02.220Z,56.25
2023-04-17T05:28:05.175Z,45.00
2023-04-17T05:33:02.255Z,61.88
2023-04-17T05:38:02.081Z,78.75
2023-04-17T05:43:01.949Z,84.38
2023-04-17T05:48:01.959Z,106.88
2023-04-17T05:53:01.791Z,84.38
2023-04-17T05:58:10.522Z,78.75
2023-04-17T06:03:02.987Z,90.00
2023-04-17T06:08:01.614Z,78.75
2023-04-17T06:13:01.668Z,67.50
2023-04-17T06:18:01.500Z,56.25
2023-04-17T06:23:01.374Z,56.25
2023-04-17T06:28:04.402Z,56.25
2023-04-17T06:33:01.312Z,50.62
2023-04-17T06:38:01.509Z,73.12
2023-04-17T06:43:01.170Z,84.38
2023-04-17T06:48:01.160Z,84.38
2023-04-17T06:53:00.976Z,118.12
2023-04-17T06:58:01.003Z,140.62
2023-04-17T07:03:01.271Z,174.38
2023-04-17T07:08:00.834Z,185.62
2023-04-17T07:13:00.813Z,253.12
2023-04-17T07:18:01.231Z,264.38
2023-04-17T07:23:00.621Z,236.25
2023-04-17T07:28:04.602Z,202.50
2023-04-17T07:33:00.524Z,236.25
2023-04-17T07:38:00.498Z,168.75
2023-04-17T07:43:00.298Z,219.38
2023-04-17T07:48:00.344Z,140.62
2023-04-17T07:53:00.327Z,180.00
2023-04-17T07:58:00.262Z,180.00
2023-04-17T08:03:00.469Z,157.50
2023-04-17T08:08:00.390Z,247.50
2023-04-17T08:12:59.968Z,326.25
2023-04-17T08:18:00.031Z,331.88
2023-04-17T08:22:59.783Z,365.62
2023-04-17T08:28:03.474Z,331.88
2023-04-17T08:32:59.713Z,303.75
2023-04-17T08:37:59.638Z,320.62
2023-04-17T08:42:59.532Z,393.75
2023-04-17T08:47:59.654Z,348.75
2023-04-17T08:52:59.433Z,376.88
2023-04-17T08:57:59.395Z,264.38
2023-04-17T09:02:59.414Z,292.50
2023-04-17T09:07:59.414Z,427.50
2023-04-17T09:12:59.307Z,348.75
2023-04-17T09:17:59.227Z,444.38
2023-04-17T09:22:59.024Z,421.88
2023-04-17T09:28:02.071Z,483.75
2023-04-17T09:32:58.981Z,382.50
2023-04-17T09:37:58.919Z,506.25
2023-04-17T09:42:58.834Z,534.38
2023-04-17T09:47:58.780Z,551.25
2023-04-17T09:52:58.654Z,613.12
2023-04-17T09:57:58.596Z,495.00
2023-04-17T10:02:58.782Z,495.00
2023-04-17T10:07:58.601Z,427.50
2023-04-17T10:12:58.493Z,506.25
2023-04-17T10:17:58.512Z,770.62
2023-04-17T10:22:58.338Z,540.00
2023-04-17T10:28:01.303Z,506.25
2023-04-17T10:32:58.109Z,517.50
2023-04-17T10:37:58.147Z,438.75
2023-04-17T10:42:57.978Z,540.00
2023-04-17T10:47:58.026Z,489.38
2023-04-17T10:52:57.821Z,697.50
2023-04-17T10:57:57.784Z,787.50
2023-04-17T11:02:57.872Z,669.38
2023-04-17T11:07:57.828Z,652.50
2023-04-17T11:12:57.578Z,438.75
2023-04-17T11:17:57.595Z,450.00
2023-04-17T11:22:57.474Z,590.62
2023-04-17T11:28:00.406Z,421.88
2023-04-17T11:32:57.337Z,438.75
2023-04-17T11:37:57.719Z,523.12
2023-04-17T11:42:57.216Z,534.38
2023-04-17T11:47:57.306Z,630.00
2023-04-17T11:52:57.069Z,517.50
2023-04-17T11:57:57.071Z,275.62
2023-04-17T12:02:57.103Z,303.75
2023-04-17T12:07:56.880Z,669.38
2023-04-17T12:12:56.772Z,258.75
2023-04-17T12:17:56.840Z,208.12
2023-04-17T12:22:56.743Z,331.88
2023-04-17T12:27:59.773Z,298.12
2023-04-17T12:32:56.691Z,551.25
2023-04-17T12:37:56.506Z,472.50
2023-04-17T12:42:56.398Z,315.00
2023-04-17T12:47:56.442Z,213.75
2023-04-17T12:52:56.367Z,208.12
2023-04-17T12:57:56.275Z,275.62
2023-04-17T13:02:56.334Z,348.75
2023-04-17T13:07:56.156Z,438.75
2023-04-17T13:12:56.078Z,461.25
2023-04-17T13:17:55.993Z,483.75
2023-04-17T13:22:57.784Z,523.12
2023-04-17T13:27:58.870Z,562.50
2023-04-17T13:32:55.781Z,523.12
2023-04-17T13:37:55.793Z,478.12
2023-04-17T13:42:55.641Z,354.38
2023-04-17T13:47:55.715Z,348.75
2023-04-17T13:52:55.513Z,388.12
2023-04-17T13:57:55.571Z,421.88
2023-04-17T14:02:55.662Z,405.00
2023-04-17T14:07:55.348Z,264.38
2023-04-17T14:12:55.212Z,281.25
2023-04-17T14:17:55.571Z,343.12
2023-04-17T14:22:55.125Z,450.00
2023-04-17T14:27:58.225Z,270.00
2023-04-17T14:32:54.999Z,354.38
2023-04-17T14:37:55.036Z,230.62
2023-04-17T14:42:55.029Z,219.38
2023-04-17T14:47:54.858Z,326.25
2023-04-17T14:52:54.797Z,331.88
2023-04-17T14:57:54.749Z,286.88
2023-04-17T15:02:54.756Z,275.62
2023-04-17T15:07:55.020Z,270.00
2023-04-17T15:12:54.425Z,275.62
2023-04-17T15:17:54.450Z,320.62
2023-04-17T15:22:54.339Z,225.00
2023-04-17T15:27:57.416Z,275.62
2023-04-17T15:32:54.313Z,253.12
2023-04-17T15:37:54.175Z,331.88
2023-04-17T15:42:54.109Z,315.00
2023-04-17T15:47:54.085Z,225.00
2023-04-17T15:52:54.027Z,208.12
2023-04-17T15:57:53.990Z,241.88
2023-04-17T16:02:53.878Z,225.00
2023-04-17T16:07:53.793Z,196.88
2023-04-17T16:12:53.661Z,163.12
2023-04-17T16:17:53.725Z,174.38
2023-04-17T16:22:53.672Z,208.12
2023-04-17T16:27:56.512Z,185.62
2023-04-17T16:32:53.398Z,196.88
2023-04-17T16:37:53.409Z,163.12
2023-04-17T16:42:53.266Z,129.38
2023-04-17T16:47:53.602Z,112.50
2023-04-17T16:52:53.122Z,129.38
2023-04-17T16:57:53.148Z,118.12
2023-04-17T17:02:53.077Z,129.38
2023-04-17T17:07:53.002Z,118.12
2023-04-17T17:12:52.945Z,106.88
2023-04-17T17:17:52.945Z,95.62
2023-04-17T17:22:52.803Z,84.38
2023-04-17T17:27:55.762Z,67.50
2023-04-17T17:32:52.771Z,56.25
2023-04-17T17:37:52.584Z,45.00
2023-04-17T17:42:52.484Z,39.38
2023-04-17T17:47:52.566Z,33.75
2023-04-17T17:52:52.328Z,28.12
2023-04-17T17:57:52.340Z,22.50
2023-04-17T18:02:52.407Z,11.25
2023-04-17T18:07:52.222Z,5.62
2023-04-17T18:12:52.173Z,5.62
2023-04-17T18:17:52.273Z,0.00
2023-04-17T18:22:52.006Z,0.00
2023-04-17T18:27:54.939Z,0.00
2023-04-17T18:32:52.038Z,0.00
2023-04-17T18:37:51.850Z,0.00
2023-04-17T18:42:51.716Z,0.00
2023-04-17T18:47:51.779Z,0.00
2023-04-17T18:52:51.618Z,0.00
2023-04-17T18:57:51.625Z,0.00
2023-04-17T19:02:51.594Z,0.00
2023-04-17T19:07:51.450Z,0.00
2023-04-17T19:12:51.361Z,0.00
2023-04-17T19:17:51.310Z,0.00
2023-04-17T19:22:51.252Z,0.00
2023-04-17T19:27:54.192Z,0.00
2023-04-17T19:32:51.124Z,0.00
2023-04-17T19:37:51.050Z,0.00
2023-04-17T19:42:50.987Z,0.00
2023-04-17T19:47:51.040Z,0.00
2023-04-17T19:52:50.833Z,0.00
2023-04-17T19:57:51.022Z,0.00
2023-04-17T20:02:50.856Z,0.00
2023-04-17T20:07:50.744Z,0.00
2023-04-17T20:12:50.534Z,0.00
2023-04-17T20:17:50.585Z,0.00
2023-04-17T20:22:50.446Z,0.00
2023-04-17T20:27:53.544Z,0.00
2023-04-17T20:32:50.345Z,0.00
2023-04-17T20:37:50.241Z,0.00
2023-04-17T20:42:50.327Z,0.00
2023-04-17T20:52:50.009Z,0.00
2023-04-17T20:57:50.040Z,0.00
2023-04-17T21:02:49.943Z,0.00
2023-04-17T21:07:51.524Z,0.00
2023-04-17T21:12:49.848Z,0.00
2023-04-17T21:17:49.873Z,0.00
2023-04-17T21:22:49.621Z,0.00
2023-04-17T21:27:52.660Z,0.00
2023-04-17T21:32:49.524Z,0.00
2023-04-17T21:37:49.514Z,0.00
2023-04-17T21:42:49.362Z,0.00
2023-04-17T21:47:49.434Z,0.00
2023-04-17T21:52:49.210Z,0.00
2023-04-17T21:57:49.262Z,0.00
2023-04-17T22:02:49.248Z,0.00
2023-04-17T22:07:54.958Z,0.00
2023-04-17T22:12:49.992Z,0.00
2023-04-17T22:17:48.975Z,0.00
2023-04-17T22:22:48.903Z,0.00
2023-04-17T22:27:51.848Z,0.00
2023-04-17T22:32:48.750Z,0.00
2023-04-17T22:37:48.799Z,0.00
2023-04-17T22:42:48.548Z,0.00
2023-04-17T22:47:48.610Z,0.00
2023-04-17T22:52:48.500Z,0.00
2023-04-17T22:57:48.483Z,0.00
2023-04-17T23:02:48.454Z,0.00
2023-04-17T23:07:48.322Z,0.00
2023-04-17T23:12:48.173Z,0.00
2023-04-17T23:17:48.785Z,0.00
2023-04-17T23:22:48.207Z,0.00
2023-04-17T23:27:51.203Z,0.00
2023-04-17T23:32:48.080Z,0.00
2023-04-17T23:37:48.257Z,0.00
2023-04-17T23:42:48.431Z,0.00
2023-04-17T23:47:47.949Z,0.00
2023-04-17T23:52:47.750Z,0.00
2023-04-17T23:57:47.769Z,0.00
